sensor_id;sensor_type;location;lat;lon;timestamp;P1;durP1;ratioP1;P2;durP2;ratioP2
71606;SDS011;60641;53.556;9.914;2023-02-28T00:00:09;7.10;;;1.40;;
71606;SDS011;60641;53.556;9.914;2023-02-28T00:02:57;7.80;;;1.30;;
71606;SDS011;60641;53.556;9.914;2023-02-28T00:05:24;6.00;;;1.30;;
71606;SDS011;60641;53.556;9.914;2023-02-28T00:07:52;3.90;;;0.90;;
71606;SDS011;60641;53.556;9.914;2023-02-28T00:10:19;4.50;;;1.00;;
71606;SDS011;60641;53.556;9.914;2023-02-28T00:12:52;7.20;;;1.20;;
71606;SDS011;60641;53.556;9.914;2023-02-28T00:15:20;5.50;;;1.30;;
71606;SDS011;60641;53.556;9.914;2023-02-28T00:17:47;5.40;;;1.30;;
71606;SDS011;60641;53.556;9.914;2023-02-28T00:20:14;6.90;;;0.90;;
71606;SDS011;60641;53.556;9.914;2023-02-28T00:22:42;6.60;;;1.20;;
71606;SDS011;60641;53.556;9.914;2023-02-28T00:25:13;4.90;;;1.10;;
71606;SDS011;60641;53.556;9.914;2023-02-28T00:27:41;5.80;;;1.00;;
71606;SDS011;60641;53.556;9.914;2023-02-28T00:30:10;6.80;;;1.30;;
71606;SDS011;60641;53.556;9.914;2023-02-28T00:32:38;5.70;;;1.30;;
71606;SDS011;60641;53.556;9.914;2023-02-28T00:35:05;6.20;;;1.30;;
71606;SDS011;60641;53.556;9.914;2023-02-28T00:37:32;8.60;;;1.60;;
71606;SDS011;60641;53.556;9.914;2023-02-28T00:39:59;8.10;;;1.40;;
71606;SDS011;60641;53.556;9.914;2023-02-28T00:42:26;6.10;;;1.30;;
71606;SDS011;60641;53.556;9.914;2023-02-28T00:44:53;10.10;;;2.00;;
71606;SDS011;60641;53.556;9.914;2023-02-28T00:47:20;7.50;;;1.50;;
71606;SDS011;60641;53.556;9.914;2023-02-28T00:49:46;6.00;;;1.30;;
71606;SDS011;60641;53.556;9.914;2023-02-28T00:52:13;8.40;;;1.50;;
71606;SDS011;60641;53.556;9.914;2023-02-28T00:54:39;8.00;;;1.70;;
71606;SDS011;60641;53.556;9.914;2023-02-28T00:57:05;5.70;;;1.60;;
71606;SDS011;60641;53.556;9.914;2023-02-28T00:59:32;6.90;;;1.60;;
71606;SDS011;60641;53.556;9.914;2023-02-28T01:01:58;7.80;;;2.10;;
71606;SDS011;60641;53.556;9.914;2023-02-28T01:04:25;7.80;;;1.80;;
71606;SDS011;60641;53.556;9.914;2023-02-28T01:06:51;8.20;;;1.60;;
71606;SDS011;60641;53.556;9.914;2023-02-28T01:09:18;6.40;;;1.80;;
71606;SDS011;60641;53.556;9.914;2023-02-28T01:11:44;8.70;;;1.80;;
71606;SDS011;60641;53.556;9.914;2023-02-28T01:14:12;8.40;;;2.00;;
71606;SDS011;60641;53.556;9.914;2023-02-28T01:16:39;7.30;;;1.60;;
71606;SDS011;60641;53.556;9.914;2023-02-28T01:19:06;7.80;;;2.00;;
71606;SDS011;60641;53.556;9.914;2023-02-28T01:21:32;8.90;;;1.80;;
71606;SDS011;60641;53.556;9.914;2023-02-28T01:24:01;7.10;;;1.80;;
71606;SDS011;60641;53.556;9.914;2023-02-28T01:26:29;6.70;;;2.00;;
71606;SDS011;60641;53.556;9.914;2023-02-28T01:28:56;5.60;;;1.80;;
71606;SDS011;60641;53.556;9.914;2023-02-28T01:31:22;6.90;;;1.90;;
71606;SDS011;60641;53.556;9.914;2023-02-28T01:33:49;8.50;;;1.90;;
71606;SDS011;60641;53.556;9.914;2023-02-28T01:36:18;7.00;;;1.90;;
71606;SDS011;60641;53.556;9.914;2023-02-28T01:38:46;6.90;;;1.60;;
71606;SDS011;60641;53.556;9.914;2023-02-28T01:41:16;6.10;;;1.50;;
71606;SDS011;60641;53.556;9.914;2023-02-28T01:46:10;8.30;;;2.00;;
71606;SDS011;60641;53.556;9.914;2023-02-28T01:48:42;11.00;;;1.80;;
71606;SDS011;60641;53.556;9.914;2023-02-28T01:51:13;6.90;;;1.70;;
71606;SDS011;60641;53.556;9.914;2023-02-28T01:53:42;7.10;;;1.90;;
71606;SDS011;60641;53.556;9.914;2023-02-28T01:56:11;8.60;;;2.00;;
71606;SDS011;60641;53.556;9.914;2023-02-28T01:58:38;7.60;;;2.00;;
71606;SDS011;60641;53.556;9.914;2023-02-28T02:01:05;6.90;;;1.80;;
71606;SDS011;60641;53.556;9.914;2023-02-28T02:03:31;16.20;;;2.40;;
71606;SDS011;60641;53.556;9.914;2023-02-28T02:05:58;7.80;;;2.50;;
71606;SDS011;60641;53.556;9.914;2023-02-28T02:08:25;7.80;;;2.20;;
71606;SDS011;60641;53.556;9.914;2023-02-28T02:18:57;6.80;;;2.20;;
71606;SDS011;60641;53.556;9.914;2023-02-28T02:21:46;8.40;;;2.30;;
71606;SDS011;60641;53.556;9.914;2023-02-28T02:35:14;8.80;;;2.50;;
71606;SDS011;60641;53.556;9.914;2023-02-28T02:37:50;9.10;;;2.40;;
71606;SDS011;60641;53.556;9.914;2023-02-28T02:40:24;8.10;;;2.00;;
71606;SDS011;60641;53.556;9.914;2023-02-28T02:42:56;10.20;;;2.40;;
71606;SDS011;60641;53.556;9.914;2023-02-28T02:45:54;10.60;;;2.50;;
71606;SDS011;60641;53.556;9.914;2023-02-28T02:48:24;7.40;;;2.30;;
71606;SDS011;60641;53.556;9.914;2023-02-28T02:50:54;7.70;;;2.10;;
71606;SDS011;60641;53.556;9.914;2023-02-28T02:53:32;8.70;;;3.10;;
71606;SDS011;60641;53.556;9.914;2023-02-28T02:56:01;7.10;;;2.20;;
71606;SDS011;60641;53.556;9.914;2023-02-28T02:58:29;6.60;;;2.00;;
71606;SDS011;60641;53.556;9.914;2023-02-28T03:00:58;7.50;;;2.30;;
71606;SDS011;60641;53.556;9.914;2023-02-28T03:03:27;6.80;;;2.30;;
71606;SDS011;60641;53.556;9.914;2023-02-28T03:05:59;10.80;;;2.30;;
71606;SDS011;60641;53.556;9.914;2023-02-28T03:08:26;7.40;;;2.40;;
71606;SDS011;60641;53.556;9.914;2023-02-28T03:10:58;9.10;;;2.60;;
71606;SDS011;60641;53.556;9.914;2023-02-28T03:19:28;7.90;;;2.80;;
71606;SDS011;60641;53.556;9.914;2023-02-28T03:27:16;9.00;;;2.80;;
71606;SDS011;60641;53.556;9.914;2023-02-28T03:29:50;8.70;;;2.80;;
71606;SDS011;60641;53.556;9.914;2023-02-28T03:32:33;10.40;;;3.00;;
71606;SDS011;60641;53.556;9.914;2023-02-28T03:35:02;9.50;;;3.10;;
71606;SDS011;60641;53.556;9.914;2023-02-28T03:37:34;9.10;;;3.30;;
71606;SDS011;60641;53.556;9.914;2023-02-28T03:40:09;9.60;;;3.40;;
71606;SDS011;60641;53.556;9.914;2023-02-28T03:42:39;10.50;;;3.20;;
71606;SDS011;60641;53.556;9.914;2023-02-28T03:45:13;8.90;;;3.00;;
71606;SDS011;60641;53.556;9.914;2023-02-28T03:47:45;9.60;;;3.30;;
71606;SDS011;60641;53.556;9.914;2023-02-28T03:50:20;14.00;;;5.30;;
71606;SDS011;60641;53.556;9.914;2023-02-28T03:52:58;12.80;;;5.40;;
71606;SDS011;60641;53.556;9.914;2023-02-28T03:55:32;9.30;;;3.80;;
71606;SDS011;60641;53.556;9.914;2023-02-28T03:58:06;9.20;;;3.80;;
71606;SDS011;60641;53.556;9.914;2023-02-28T04:00:40;10.60;;;3.90;;
71606;SDS011;60641;53.556;9.914;2023-02-28T04:03:09;11.60;;;3.60;;
71606;SDS011;60641;53.556;9.914;2023-02-28T04:05:57;10.40;;;4.20;;
71606;SDS011;60641;53.556;9.914;2023-02-28T04:08:23;12.40;;;4.10;;
71606;SDS011;60641;53.556;9.914;2023-02-28T04:11:38;10.60;;;3.90;;
71606;SDS011;60641;53.556;9.914;2023-02-28T04:13:42;10.50;;;3.60;;
71606;SDS011;60641;53.556;9.914;2023-02-28T04:16:09;9.60;;;3.90;;
71606;SDS011;60641;53.556;9.914;2023-02-28T04:18:39;15.10;;;4.00;;
71606;SDS011;60641;53.556;9.914;2023-02-28T04:21:06;10.60;;;3.80;;
71606;SDS011;60641;53.556;9.914;2023-02-28T04:23:33;11.10;;;3.90;;
71606;SDS011;60641;53.556;9.914;2023-02-28T04:25:59;11.10;;;4.10;;
71606;SDS011;60641;53.556;9.914;2023-02-28T04:28:26;11.30;;;4.20;;
71606;SDS011;60641;53.556;9.914;2023-02-28T04:30:59;11.00;;;4.30;;
71606;SDS011;60641;53.556;9.914;2023-02-28T04:33:28;10.80;;;4.30;;
71606;SDS011;60641;53.556;9.914;2023-02-28T04:35:58;8.80;;;3.90;;
71606;SDS011;60641;53.556;9.914;2023-02-28T04:38:25;14.40;;;4.30;;
71606;SDS011;60641;53.556;9.914;2023-02-28T04:40:52;9.80;;;4.00;;
71606;SDS011;60641;53.556;9.914;2023-02-28T04:43:18;13.20;;;4.20;;
71606;SDS011;60641;53.556;9.914;2023-02-28T04:45:45;11.00;;;4.20;;
71606;SDS011;60641;53.556;9.914;2023-02-28T04:48:11;11.30;;;4.30;;
71606;SDS011;60641;53.556;9.914;2023-02-28T04:50:37;11.00;;;4.40;;
71606;SDS011;60641;53.556;9.914;2023-02-28T04:53:04;10.70;;;4.50;;
71606;SDS011;60641;53.556;9.914;2023-02-28T04:55:30;10.60;;;4.20;;
71606;SDS011;60641;53.556;9.914;2023-02-28T04:57:57;11.50;;;4.30;;
71606;SDS011;60641;53.556;9.914;2023-02-28T05:00:23;11.00;;;4.30;;
71606;SDS011;60641;53.556;9.914;2023-02-28T05:02:51;10.60;;;4.30;;
71606;SDS011;60641;53.556;9.914;2023-02-28T05:05:17;13.40;;;4.70;;
71606;SDS011;60641;53.556;9.914;2023-02-28T05:07:44;12.30;;;4.50;;
71606;SDS011;60641;53.556;9.914;2023-02-28T05:10:11;12.20;;;4.90;;
71606;SDS011;60641;53.556;9.914;2023-02-28T05:12:37;11.70;;;4.20;;
71606;SDS011;60641;53.556;9.914;2023-02-28T05:15:05;11.40;;;3.90;;
71606;SDS011;60641;53.556;9.914;2023-02-28T05:17:31;10.60;;;3.90;;
71606;SDS011;60641;53.556;9.914;2023-02-28T05:19:58;15.40;;;4.90;;
71606;SDS011;60641;53.556;9.914;2023-02-28T05:22:24;10.50;;;4.20;;
71606;SDS011;60641;53.556;9.914;2023-02-28T05:24:51;10.70;;;4.20;;
71606;SDS011;60641;53.556;9.914;2023-02-28T05:27:17;13.70;;;5.00;;
71606;SDS011;60641;53.556;9.914;2023-02-28T05:29:44;11.60;;;4.50;;
71606;SDS011;60641;53.556;9.914;2023-02-28T05:32:11;11.70;;;4.50;;
71606;SDS011;60641;53.556;9.914;2023-02-28T05:34:38;13.80;;;3.40;;
71606;SDS011;60641;53.556;9.914;2023-02-28T05:37:05;11.80;;;3.90;;
71606;SDS011;60641;53.556;9.914;2023-02-28T05:39:33;12.30;;;4.60;;
71606;SDS011;60641;53.556;9.914;2023-02-28T05:41:59;10.70;;;4.70;;
71606;SDS011;60641;53.556;9.914;2023-02-28T05:44:25;11.90;;;4.70;;
71606;SDS011;60641;53.556;9.914;2023-02-28T05:46:52;11.20;;;5.10;;
71606;SDS011;60641;53.556;9.914;2023-02-28T05:49:18;11.20;;;4.70;;
71606;SDS011;60641;53.556;9.914;2023-02-28T05:51:45;12.70;;;5.10;;
71606;SDS011;60641;53.556;9.914;2023-02-28T05:54:11;11.10;;;4.50;;
71606;SDS011;60641;53.556;9.914;2023-02-28T05:56:38;12.20;;;4.80;;
71606;SDS011;60641;53.556;9.914;2023-02-28T05:59:06;11.40;;;4.90;;
71606;SDS011;60641;53.556;9.914;2023-02-28T06:01:37;9.80;;;4.40;;
71606;SDS011;60641;53.556;9.914;2023-02-28T06:04:06;14.60;;;5.30;;
71606;SDS011;60641;53.556;9.914;2023-02-28T06:06:34;12.30;;;4.90;;
71606;SDS011;60641;53.556;9.914;2023-02-28T06:09:02;12.20;;;5.10;;
71606;SDS011;60641;53.556;9.914;2023-02-28T06:11:30;13.30;;;4.70;;
71606;SDS011;60641;53.556;9.914;2023-02-28T06:14:00;11.40;;;4.40;;
71606;SDS011;60641;53.556;9.914;2023-02-28T06:16:27;10.40;;;4.30;;
71606;SDS011;60641;53.556;9.914;2023-02-28T06:18:56;10.90;;;4.60;;
71606;SDS011;60641;53.556;9.914;2023-02-28T06:21:23;12.30;;;5.10;;
71606;SDS011;60641;53.556;9.914;2023-02-28T06:23:50;12.90;;;4.80;;
71606;SDS011;60641;53.556;9.914;2023-02-28T06:26:16;11.40;;;4.70;;
71606;SDS011;60641;53.556;9.914;2023-02-28T06:28:43;14.60;;;4.90;;
71606;SDS011;60641;53.556;9.914;2023-02-28T06:31:10;13.40;;;5.00;;
71606;SDS011;60641;53.556;9.914;2023-02-28T06:33:39;13.00;;;5.30;;
71606;SDS011;60641;53.556;9.914;2023-02-28T06:36:06;17.60;;;5.00;;
71606;SDS011;60641;53.556;9.914;2023-02-28T06:38:33;13.60;;;5.20;;
71606;SDS011;60641;53.556;9.914;2023-02-28T06:41:00;12.50;;;5.70;;
71606;SDS011;60641;53.556;9.914;2023-02-28T06:43:28;11.70;;;5.00;;
71606;SDS011;60641;53.556;9.914;2023-02-28T06:45:56;13.40;;;5.00;;
71606;SDS011;60641;53.556;9.914;2023-02-28T06:48:25;11.40;;;4.80;;
71606;SDS011;60641;53.556;9.914;2023-02-28T06:51:00;12.70;;;5.40;;
71606;SDS011;60641;53.556;9.914;2023-02-28T06:53:30;12.10;;;5.10;;
71606;SDS011;60641;53.556;9.914;2023-02-28T06:55:57;13.40;;;5.20;;
71606;SDS011;60641;53.556;9.914;2023-02-28T06:58:23;11.90;;;5.00;;
71606;SDS011;60641;53.556;9.914;2023-02-28T07:00:50;12.60;;;5.10;;
71606;SDS011;60641;53.556;9.914;2023-02-28T07:03:18;17.20;;;5.70;;
71606;SDS011;60641;53.556;9.914;2023-02-28T07:05:44;15.00;;;5.40;;
71606;SDS011;60641;53.556;9.914;2023-02-28T07:08:11;13.10;;;5.00;;
71606;SDS011;60641;53.556;9.914;2023-02-28T07:10:38;13.00;;;5.20;;
71606;SDS011;60641;53.556;9.914;2023-02-28T07:13:05;20.80;;;5.70;;
71606;SDS011;60641;53.556;9.914;2023-02-28T07:15:33;15.10;;;5.80;;
71606;SDS011;60641;53.556;9.914;2023-02-28T07:17:59;13.20;;;5.70;;
71606;SDS011;60641;53.556;9.914;2023-02-28T07:20:26;15.60;;;5.90;;
71606;SDS011;60641;53.556;9.914;2023-02-28T07:22:52;14.70;;;5.30;;
71606;SDS011;60641;53.556;9.914;2023-02-28T07:25:23;15.20;;;5.40;;
71606;SDS011;60641;53.556;9.914;2023-02-28T07:27:50;17.20;;;5.90;;
71606;SDS011;60641;53.556;9.914;2023-02-28T07:30:16;14.10;;;5.40;;
71606;SDS011;60641;53.556;9.914;2023-02-28T07:32:43;12.00;;;5.80;;
71606;SDS011;60641;53.556;9.914;2023-02-28T07:35:10;13.90;;;5.50;;
71606;SDS011;60641;53.556;9.914;2023-02-28T07:37:36;15.00;;;5.90;;
71606;SDS011;60641;53.556;9.914;2023-02-28T07:40:03;15.40;;;5.50;;
71606;SDS011;60641;53.556;9.914;2023-02-28T07:42:33;15.50;;;6.10;;
71606;SDS011;60641;53.556;9.914;2023-02-28T07:45:04;16.00;;;5.30;;
71606;SDS011;60641;53.556;9.914;2023-02-28T07:47:31;16.40;;;5.30;;
71606;SDS011;60641;53.556;9.914;2023-02-28T07:49:58;15.00;;;6.00;;
71606;SDS011;60641;53.556;9.914;2023-02-28T07:52:24;12.80;;;5.10;;
71606;SDS011;60641;53.556;9.914;2023-02-28T07:54:51;12.10;;;4.80;;
71606;SDS011;60641;53.556;9.914;2023-02-28T07:57:17;14.60;;;3.90;;
71606;SDS011;60641;53.556;9.914;2023-02-28T07:59:44;9.50;;;3.20;;
71606;SDS011;60641;53.556;9.914;2023-02-28T08:02:17;9.10;;;3.10;;
71606;SDS011;60641;53.556;9.914;2023-02-28T08:04:44;11.30;;;3.50;;
71606;SDS011;60641;53.556;9.914;2023-02-28T08:07:15;11.60;;;3.00;;
71606;SDS011;60641;53.556;9.914;2023-02-28T08:09:42;10.40;;;3.00;;
71606;SDS011;60641;53.556;9.914;2023-02-28T08:12:09;11.00;;;2.80;;
71606;SDS011;60641;53.556;9.914;2023-02-28T08:14:36;8.30;;;2.80;;
71606;SDS011;60641;53.556;9.914;2023-02-28T08:17:03;7.10;;;2.60;;
71606;SDS011;60641;53.556;9.914;2023-02-28T08:19:30;10.50;;;2.50;;
71606;SDS011;60641;53.556;9.914;2023-02-28T08:21:57;8.20;;;2.30;;
71606;SDS011;60641;53.556;9.914;2023-02-28T08:24:23;5.40;;;1.80;;
71606;SDS011;60641;53.556;9.914;2023-02-28T08:26:50;6.30;;;1.60;;
71606;SDS011;60641;53.556;9.914;2023-02-28T08:29:16;6.20;;;1.80;;
71606;SDS011;60641;53.556;9.914;2023-02-28T08:31:43;5.70;;;1.60;;
71606;SDS011;60641;53.556;9.914;2023-02-28T08:34:10;5.40;;;1.40;;
71606;SDS011;60641;53.556;9.914;2023-02-28T08:36:38;5.90;;;1.60;;
71606;SDS011;60641;53.556;9.914;2023-02-28T08:39:05;7.70;;;2.00;;
71606;SDS011;60641;53.556;9.914;2023-02-28T08:41:32;6.50;;;1.50;;
71606;SDS011;60641;53.556;9.914;2023-02-28T08:43:59;6.60;;;1.70;;
71606;SDS011;60641;53.556;9.914;2023-02-28T08:46:26;5.00;;;1.60;;
71606;SDS011;60641;53.556;9.914;2023-02-28T08:48:53;6.80;;;1.80;;
71606;SDS011;60641;53.556;9.914;2023-02-28T08:51:21;7.70;;;2.00;;
71606;SDS011;60641;53.556;9.914;2023-02-28T08:53:53;6.70;;;1.80;;
71606;SDS011;60641;53.556;9.914;2023-02-28T08:56:20;6.60;;;1.70;;
71606;SDS011;60641;53.556;9.914;2023-02-28T08:58:48;5.90;;;1.70;;
71606;SDS011;60641;53.556;9.914;2023-02-28T09:01:17;6.20;;;1.70;;
71606;SDS011;60641;53.556;9.914;2023-02-28T09:03:45;6.20;;;1.40;;
71606;SDS011;60641;53.556;9.914;2023-02-28T09:06:14;5.00;;;1.30;;
71606;SDS011;60641;53.556;9.914;2023-02-28T09:08:41;5.10;;;1.20;;
71606;SDS011;60641;53.556;9.914;2023-02-28T09:11:07;5.60;;;1.60;;
71606;SDS011;60641;53.556;9.914;2023-02-28T09:13:35;6.20;;;1.60;;
71606;SDS011;60641;53.556;9.914;2023-02-28T09:16:02;6.70;;;1.40;;
71606;SDS011;60641;53.556;9.914;2023-02-28T09:18:30;4.60;;;1.50;;
71606;SDS011;60641;53.556;9.914;2023-02-28T09:20:56;7.10;;;1.40;;
71606;SDS011;60641;53.556;9.914;2023-02-28T09:23:23;4.50;;;1.20;;
71606;SDS011;60641;53.556;9.914;2023-02-28T09:25:51;4.20;;;1.00;;
71606;SDS011;60641;53.556;9.914;2023-02-28T09:28:19;3.70;;;0.80;;
71606;SDS011;60641;53.556;9.914;2023-02-28T09:30:47;4.00;;;0.90;;
71606;SDS011;60641;53.556;9.914;2023-02-28T09:33:15;4.90;;;1.20;;
71606;SDS011;60641;53.556;9.914;2023-02-28T09:35:43;4.30;;;1.20;;
71606;SDS011;60641;53.556;9.914;2023-02-28T09:38:09;4.20;;;1.00;;
71606;SDS011;60641;53.556;9.914;2023-02-28T09:40:37;3.10;;;0.90;;
71606;SDS011;60641;53.556;9.914;2023-02-28T09:43:23;4.30;;;1.00;;
71606;SDS011;60641;53.556;9.914;2023-02-28T09:45:55;6.50;;;0.90;;
71606;SDS011;60641;53.556;9.914;2023-02-28T09:48:28;4.20;;;1.00;;
71606;SDS011;60641;53.556;9.914;2023-02-28T09:51:05;3.90;;;0.90;;
71606;SDS011;60641;53.556;9.914;2023-02-28T09:53:39;3.10;;;0.70;;
71606;SDS011;60641;53.556;9.914;2023-02-28T09:56:10;2.80;;;0.60;;
71606;SDS011;60641;53.556;9.914;2023-02-28T10:01:51;3.10;;;0.80;;
71606;SDS011;60641;53.556;9.914;2023-02-28T10:04:49;2.80;;;0.70;;
71606;SDS011;60641;53.556;9.914;2023-02-28T10:10:29;3.60;;;0.70;;
71606;SDS011;60641;53.556;9.914;2023-02-28T10:13:02;2.90;;;0.60;;
71606;SDS011;60641;53.556;9.914;2023-02-28T10:15:32;3.40;;;0.50;;
71606;SDS011;60641;53.556;9.914;2023-02-28T10:18:03;3.00;;;0.60;;
71606;SDS011;60641;53.556;9.914;2023-02-28T10:20:35;3.70;;;0.60;;
71606;SDS011;60641;53.556;9.914;2023-02-28T10:26:20;3.40;;;0.90;;
71606;SDS011;60641;53.556;9.914;2023-02-28T10:28:39;2.90;;;0.80;;
71606;SDS011;60641;53.556;9.914;2023-02-28T10:31:06;5.10;;;0.90;;
71606;SDS011;60641;53.556;9.914;2023-02-28T10:33:37;3.40;;;0.90;;
71606;SDS011;60641;53.556;9.914;2023-02-28T10:36:03;3.40;;;0.80;;
71606;SDS011;60641;53.556;9.914;2023-02-28T10:38:34;4.70;;;1.10;;
71606;SDS011;60641;53.556;9.914;2023-02-28T10:41:13;3.50;;;1.00;;
71606;SDS011;60641;53.556;9.914;2023-02-28T10:43:41;5.10;;;0.80;;
71606;SDS011;60641;53.556;9.914;2023-02-28T10:48:36;5.20;;;1.40;;
71606;SDS011;60641;53.556;9.914;2023-02-28T10:51:08;5.20;;;1.30;;
71606;SDS011;60641;53.556;9.914;2023-02-28T10:53:38;4.50;;;1.10;;
71606;SDS011;60641;53.556;9.914;2023-02-28T10:56:19;5.30;;;1.20;;
71606;SDS011;60641;53.556;9.914;2023-02-28T10:58:55;3.70;;;1.00;;
71606;SDS011;60641;53.556;9.914;2023-02-28T11:02:07;6.80;;;1.30;;
71606;SDS011;60641;53.556;9.914;2023-02-28T11:07:20;3.60;;;1.00;;
71606;SDS011;60641;53.556;9.914;2023-02-28T11:09:48;3.00;;;1.00;;
71606;SDS011;60641;53.556;9.914;2023-02-28T11:12:36;4.80;;;1.10;;
71606;SDS011;60641;53.556;9.914;2023-02-28T11:18:00;4.50;;;1.10;;
71606;SDS011;60641;53.556;9.914;2023-02-28T11:20:43;4.30;;;1.10;;
71606;SDS011;60641;53.556;9.914;2023-02-28T11:23:15;5.40;;;1.10;;
71606;SDS011;60641;53.556;9.914;2023-02-28T11:25:46;4.50;;;1.10;;
71606;SDS011;60641;53.556;9.914;2023-02-28T11:28:34;5.40;;;1.10;;
71606;SDS011;60641;53.556;9.914;2023-02-28T11:38:41;3.80;;;0.90;;
71606;SDS011;60641;53.556;9.914;2023-02-28T11:49:43;6.30;;;1.30;;
71606;SDS011;60641;53.556;9.914;2023-02-28T11:58:00;4.50;;;1.20;;
71606;SDS011;60641;53.556;9.914;2023-02-28T12:00:52;6.40;;;1.30;;
71606;SDS011;60641;53.556;9.914;2023-02-28T12:03:27;9.20;;;1.80;;
71606;SDS011;60641;53.556;9.914;2023-02-28T12:06:04;4.70;;;1.00;;
71606;SDS011;60641;53.556;9.914;2023-02-28T12:08:44;4.20;;;1.20;;
71606;SDS011;60641;53.556;9.914;2023-02-28T12:11:41;5.80;;;1.30;;
71606;SDS011;60641;53.556;9.914;2023-02-28T12:22:27;6.30;;;1.50;;
71606;SDS011;60641;53.556;9.914;2023-02-28T12:27:31;7.60;;;1.60;;
71606;SDS011;60641;53.556;9.914;2023-02-28T12:30:02;5.10;;;1.40;;
71606;SDS011;60641;53.556;9.914;2023-02-28T12:32:37;4.80;;;1.40;;
71606;SDS011;60641;53.556;9.914;2023-02-28T12:40:11;4.80;;;1.40;;
71606;SDS011;60641;53.556;9.914;2023-02-28T12:42:40;7.70;;;1.60;;
71606;SDS011;60641;53.556;9.914;2023-02-28T12:45:25;7.50;;;1.70;;
71606;SDS011;60641;53.556;9.914;2023-02-28T12:47:57;7.30;;;1.80;;
71606;SDS011;60641;53.556;9.914;2023-02-28T12:50:27;8.00;;;1.50;;
71606;SDS011;60641;53.556;9.914;2023-02-28T12:52:59;5.70;;;1.70;;
71606;SDS011;60641;53.556;9.914;2023-02-28T12:55:41;7.70;;;1.70;;
71606;SDS011;60641;53.556;9.914;2023-02-28T13:09:53;7.20;;;1.80;;
71606;SDS011;60641;53.556;9.914;2023-02-28T13:12:21;6.30;;;1.70;;
71606;SDS011;60641;53.556;9.914;2023-02-28T13:14:49;6.30;;;1.70;;
71606;SDS011;60641;53.556;9.914;2023-02-28T13:17:20;5.70;;;1.80;;
71606;SDS011;60641;53.556;9.914;2023-02-28T13:27:52;6.50;;;1.70;;
71606;SDS011;60641;53.556;9.914;2023-02-28T13:33:21;8.30;;;1.70;;
71606;SDS011;60641;53.556;9.914;2023-02-28T13:36:09;6.60;;;1.80;;
71606;SDS011;60641;53.556;9.914;2023-02-28T13:38:37;5.70;;;1.50;;
71606;SDS011;60641;53.556;9.914;2023-02-28T13:44:00;5.50;;;1.60;;
71606;SDS011;60641;53.556;9.914;2023-02-28T13:46:28;5.00;;;1.30;;
71606;SDS011;60641;53.556;9.914;2023-02-28T13:49:18;6.30;;;1.60;;
71606;SDS011;60641;53.556;9.914;2023-02-28T13:51:48;6.80;;;1.50;;
71606;SDS011;60641;53.556;9.914;2023-02-28T14:00:21;6.50;;;1.50;;
71606;SDS011;60641;53.556;9.914;2023-02-28T14:03:22;6.40;;;1.60;;
71606;SDS011;60641;53.556;9.914;2023-02-28T14:11:41;7.00;;;1.70;;
71606;SDS011;60641;53.556;9.914;2023-02-28T14:14:09;6.40;;;1.60;;
71606;SDS011;60641;53.556;9.914;2023-02-28T14:16:56;7.90;;;1.70;;
71606;SDS011;60641;53.556;9.914;2023-02-28T14:19:24;8.50;;;1.50;;
71606;SDS011;60641;53.556;9.914;2023-02-28T14:37:53;5.50;;;1.60;;
71606;SDS011;60641;53.556;9.914;2023-02-28T14:40:22;8.40;;;1.80;;
71606;SDS011;60641;53.556;9.914;2023-02-28T14:42:58;8.50;;;1.60;;
71606;SDS011;60641;53.556;9.914;2023-02-28T14:45:30;6.50;;;1.50;;
71606;SDS011;60641;53.556;9.914;2023-02-28T14:47:58;10.40;;;1.90;;
71606;SDS011;60641;53.556;9.914;2023-02-28T14:50:32;5.10;;;1.50;;
71606;SDS011;60641;53.556;9.914;2023-02-28T14:53:01;9.50;;;1.80;;
71606;SDS011;60641;53.556;9.914;2023-02-28T14:55:34;6.50;;;1.40;;
71606;SDS011;60641;53.556;9.914;2023-02-28T14:58:02;9.80;;;1.90;;
71606;SDS011;60641;53.556;9.914;2023-02-28T15:00:33;9.30;;;1.50;;
71606;SDS011;60641;53.556;9.914;2023-02-28T15:03:01;6.40;;;1.70;;
71606;SDS011;60641;53.556;9.914;2023-02-28T15:05:51;6.30;;;1.90;;
71606;SDS011;60641;53.556;9.914;2023-02-28T15:08:18;11.70;;;1.60;;
71606;SDS011;60641;53.556;9.914;2023-02-28T15:10:56;10.20;;;1.70;;
71606;SDS011;60641;53.556;9.914;2023-02-28T15:13:26;7.60;;;1.60;;
71606;SDS011;60641;53.556;9.914;2023-02-28T15:16:20;6.90;;;1.70;;
71606;SDS011;60641;53.556;9.914;2023-02-28T15:21:24;6.00;;;1.60;;
71606;SDS011;60641;53.556;9.914;2023-02-28T15:23:57;10.60;;;2.30;;
71606;SDS011;60641;53.556;9.914;2023-02-28T15:26:27;8.00;;;1.70;;
71606;SDS011;60641;53.556;9.914;2023-02-28T15:29:04;10.80;;;1.70;;
71606;SDS011;60641;53.556;9.914;2023-02-28T15:31:33;6.20;;;1.70;;
71606;SDS011;60641;53.556;9.914;2023-02-28T15:34:04;7.40;;;1.80;;
71606;SDS011;60641;53.556;9.914;2023-02-28T15:36:32;10.30;;;1.80;;
71606;SDS011;60641;53.556;9.914;2023-02-28T15:39:16;8.70;;;2.00;;
71606;SDS011;60641;53.556;9.914;2023-02-28T15:41:45;8.70;;;2.30;;
71606;SDS011;60641;53.556;9.914;2023-02-28T15:49:25;14.20;;;3.40;;
71606;SDS011;60641;53.556;9.914;2023-02-28T15:51:51;7.60;;;2.00;;
71606;SDS011;60641;53.556;9.914;2023-02-28T15:54:22;6.50;;;1.70;;
71606;SDS011;60641;53.556;9.914;2023-02-28T15:56:51;10.30;;;1.80;;
71606;SDS011;60641;53.556;9.914;2023-02-28T15:59:20;6.80;;;1.80;;
71606;SDS011;60641;53.556;9.914;2023-02-28T16:02:02;8.60;;;2.70;;
71606;SDS011;60641;53.556;9.914;2023-02-28T16:04:29;10.30;;;2.30;;
71606;SDS011;60641;53.556;9.914;2023-02-28T16:09:24;10.80;;;1.80;;
71606;SDS011;60641;53.556;9.914;2023-02-28T16:11:52;6.00;;;1.70;;
71606;SDS011;60641;53.556;9.914;2023-02-28T16:14:24;14.20;;;3.00;;
71606;SDS011;60641;53.556;9.914;2023-02-28T16:16:54;7.60;;;1.90;;
71606;SDS011;60641;53.556;9.914;2023-02-28T16:19:22;12.20;;;2.10;;
71606;SDS011;60641;53.556;9.914;2023-02-28T16:21:48;15.20;;;6.50;;
71606;SDS011;60641;53.556;9.914;2023-02-28T16:24:15;10.90;;;3.60;;
71606;SDS011;60641;53.556;9.914;2023-02-28T16:26:42;11.50;;;3.50;;
71606;SDS011;60641;53.556;9.914;2023-02-28T16:29:13;8.60;;;2.80;;
71606;SDS011;60641;53.556;9.914;2023-02-28T16:31:45;6.70;;;2.00;;
71606;SDS011;60641;53.556;9.914;2023-02-28T16:34:12;8.20;;;1.70;;
71606;SDS011;60641;53.556;9.914;2023-02-28T16:36:39;8.60;;;1.70;;
71606;SDS011;60641;53.556;9.914;2023-02-28T16:39:06;5.50;;;1.70;;
71606;SDS011;60641;53.556;9.914;2023-02-28T16:41:32;11.40;;;1.90;;
71606;SDS011;60641;53.556;9.914;2023-02-28T16:44:00;9.80;;;2.10;;
71606;SDS011;60641;53.556;9.914;2023-02-28T16:46:38;9.50;;;1.80;;
71606;SDS011;60641;53.556;9.914;2023-02-28T16:49:09;6.00;;;1.90;;
71606;SDS011;60641;53.556;9.914;2023-02-28T16:51:37;7.70;;;1.50;;
71606;SDS011;60641;53.556;9.914;2023-02-28T16:54:03;6.30;;;1.50;;
71606;SDS011;60641;53.556;9.914;2023-02-28T16:56:30;9.00;;;1.90;;
71606;SDS011;60641;53.556;9.914;2023-02-28T16:58:59;9.00;;;2.90;;
71606;SDS011;60641;53.556;9.914;2023-02-28T17:01:27;11.10;;;3.90;;
71606;SDS011;60641;53.556;9.914;2023-02-28T17:03:54;12.70;;;3.00;;
71606;SDS011;60641;53.556;9.914;2023-02-28T17:06:23;13.30;;;2.10;;
71606;SDS011;60641;53.556;9.914;2023-02-28T17:08:51;8.40;;;2.50;;
71606;SDS011;60641;53.556;9.914;2023-02-28T17:11:18;8.00;;;2.40;;
71606;SDS011;60641;53.556;9.914;2023-02-28T17:13:47;7.30;;;1.90;;
71606;SDS011;60641;53.556;9.914;2023-02-28T17:16:22;7.10;;;2.20;;
71606;SDS011;60641;53.556;9.914;2023-02-28T17:18:50;9.00;;;2.30;;
71606;SDS011;60641;53.556;9.914;2023-02-28T17:21:17;5.70;;;2.10;;
71606;SDS011;60641;53.556;9.914;2023-02-28T17:23:44;11.70;;;2.40;;
71606;SDS011;60641;53.556;9.914;2023-02-28T17:26:14;8.70;;;2.10;;
71606;SDS011;60641;53.556;9.914;2023-02-28T17:28:43;10.00;;;2.50;;
71606;SDS011;60641;53.556;9.914;2023-02-28T17:31:10;8.90;;;1.90;;